Time;durP1;ratioP1;P1;durP2;ratioP2;P2;SDS_P1;SDS_P2;PMS_P1;PMS_P2;Temp;Humidity;BMP_temperature;BMP_pressure;BME280_temperature;BME280_humidity;BME280_pressure;Samples;Min_cycle;Max_cycle;Signal;HPM_P1;HPM_P2
2021/03/02 00:02:00;;;;;;;154.68;57.97;;;1.10;99.90;;;;;;4993685;28;20034;-78
2021/03/02 00:04:26;;;;;;;149.45;59.75;;;1.20;99.90;;;;;;4992447;28;20084;-79
2021/03/02 00:06:52;;;;;;;145.70;58.85;;;1.10;99.90;;;;;;4993531;28;20034;-79
2021/03/02 00:09:19;;;;;;;157.98;60.63;;;1.10;99.90;;;;;;4993807;28;20033;-80
2021/03/02 00:11:46;;;;;;;127.63;51.13;;;1.00;99.90;;;;;;4976344;28;20483;-79
2021/03/02 00:14:13;;;;;;;111.88;45.45;;;1.10;99.90;;;;;;4976170;28;20391;-79
2021/03/02 00:17:03;;;;;;;171.00;63.25;;;1.10;99.90;;;;;;4992247;28;20022;-78
2021/03/02 00:19:40;;;;;;;124.47;49.47;;;1.10;99.90;;;;;;4992785;28;20064;-79
2021/03/02 00:22:21;;;;;;;112.82;44.13;;;1.00;99.90;;;;;;4993444;28;20018;-79
2021/03/02 00:24:52;;;;;;;112.82;44.90;;;1.00;99.90;;;;;;4974921;28;20445;-78
2021/03/02 00:27:20;;;;;;;141.60;50.95;;;1.00;99.90;;;;;;4993626;28;20021;-79
2021/03/02 00:29:47;;;;;;;130.02;51.80;;;1.00;99.90;;;;;;4993364;28;20030;-79
2021/03/02 00:32:17;;;;;;;107.85;44.67;;;1.00;99.90;;;;;;4976060;28;20036;-79
2021/03/02 00:34:42;;;;;;;106.88;40.63;;;1.00;99.90;;;;;;4993419;28;20383;-80
2021/03/02 00:37:08;;;;;;;114.80;42.35;;;0.90;99.90;;;;;;4993501;28;20069;-79
2021/03/02 00:39:33;;;;;;;106.10;41.33;;;1.00;99.90;;;;;;4975831;28;20365;-79
2021/03/02 00:41:59;;;;;;;103.85;41.45;;;0.90;99.90;;;;;;4976118;28;20185;-79
2021/03/02 00:44:25;;;;;;;109.15;43.88;;;0.90;99.90;;;;;;4993333;28;20548;-79
2021/03/02 00:46:50;;;;;;;119.72;46.65;;;0.90;99.90;;;;;;4992829;28;20034;-78
2021/03/02 00:49:16;;;;;;;104.53;43.22;;;0.90;99.90;;;;;;4993131;28;20068;-80
2021/03/02 00:51:42;;;;;;;109.90;42.70;;;0.90;99.90;;;;;;4993298;28;20022;-79
2021/03/02 00:54:07;;;;;;;116.45;45.00;;;0.90;99.90;;;;;;4993256;28;20050;-79
2021/03/02 00:56:33;;;;;;;113.57;42.38;;;0.90;99.90;;;;;;4993014;28;20038;-77
2021/03/02 00:58:59;;;;;;;138.15;46.53;;;0.90;99.90;;;;;;5000938;28;20522;-79
2021/03/02 01:01:24;;;;;;;125.22;47.50;;;0.90;99.90;;;;;;4993864;28;20023;-78
2021/03/02 01:03:50;;;;;;;140.30;50.38;;;0.90;99.90;;;;;;4993801;28;20118;-79
2021/03/02 01:06:16;;;;;;;146.60;46.15;;;0.80;99.90;;;;;;4995821;28;20062;-78
2021/03/02 01:08:42;;;;;;;123.78;45.03;;;0.80;99.90;;;;;;4996309;28;20029;-81
2021/03/02 01:11:08;;;;;;;149.75;52.65;;;0.70;99.90;;;;;;4996986;28;20030;-80
2021/03/02 01:13:33;;;;;;;139.13;50.45;;;0.70;99.90;;;;;;4996536;28;20101;-81
2021/03/02 01:15:59;;;;;;;128.73;46.17;;;0.70;99.90;;;;;;4996931;28;20029;-80
2021/03/02 01:18:25;;;;;;;136.35;51.30;;;0.70;99.90;;;;;;4979176;28;20018;-81
2021/03/02 01:20:50;;;;;;;150.05;51.45;;;0.70;99.90;;;;;;4995909;28;20054;-81
2021/03/02 01:23:16;;;;;;;145.65;51.25;;;0.70;99.90;;;;;;4996419;28;20391;-81
2021/03/02 01:25:42;;;;;;;134.48;47.63;;;0.70;99.90;;;;;;4996520;28;20503;-81
2021/03/02 01:28:08;;;;;;;138.25;50.53;;;0.70;99.90;;;;;;4996738;28;20387;-81
2021/03/02 01:30:33;;;;;;;149.10;59.35;;;0.80;99.90;;;;;;4996232;28;20038;-81
2021/03/02 01:32:59;;;;;;;139.00;52.92;;;0.80;99.90;;;;;;4979020;28;20077;-81
2021/03/02 01:35:25;;;;;;;169.27;52.92;;;0.80;99.90;;;;;;4996124;28;20110;-80
2021/03/02 01:37:50;;;;;;;135.98;49.33;;;0.80;99.90;;;;;;4995166;28;20113;-80
2021/03/02 01:40:17;;;;;;;135.13;52.70;;;0.80;99.90;;;;;;4996362;28;20034;-81
2021/03/02 01:42:43;;;;;;;143.70;49.30;;;0.70;99.90;;;;;;4978840;28;20391;-81
2021/03/02 01:45:16;;;;;;;138.82;46.58;;;0.70;99.90;;;;;;4996067;28;20373;-81
2021/03/02 01:47:43;;;;;;;;;;;0.70;99.90;;;;;;4979195;28;20113;-80
2021/03/02 01:50:10;;;;;;;130.90;47.95;;;0.70;99.90;;;;;;4996034;28;19910;-81
2021/03/02 01:52:36;;;;;;;153.95;51.83;;;0.70;99.90;;;;;;4995346;28;20369;-80
2021/03/02 01:55:04;;;;;;;133.30;50.50;;;0.70;99.90;;;;;;4995629;28;20023;-81
2021/03/02 01:57:30;;;;;;;158.40;52.38;;;0.70;99.90;;;;;;4995831;28;20014;-81
2021/03/02 01:59:55;;;;;;;166.20;53.05;;;0.70;99.90;;;;;;4995728;28;20108;-81
2021/03/02 02:02:40;;;;;;;164.32;55.95;;;0.60;99.90;;;;;;4996052;28;20022;-80
2021/03/02 02:05:07;;;;;;;164.30;52.08;;;0.60;99.90;;;;;;4995811;28;20026;-80
2021/03/02 02:07:38;;;;;;;159.65;53.40;;;0.60;99.90;;;;;;4995658;28;20488;-80
2021/03/02 02:10:15;;;;;;;159.13;53.83;;;0.60;99.90;;;;;;4995396;28;20022;-81
2021/03/02 02:12:50;;;;;;;167.75;54.97;;;0.60;99.90;;;;;;4995775;28;20026;-81
2021/03/02 02:15:27;;;;;;;162.70;54.90;;;0.50;99.90;;;;;;4995046;28;20484;-81
2021/03/02 02:18:22;;;;;;;159.30;51.85;;;0.50;99.90;;;;;;4996388;28;20019;-81
2021/03/02 02:21:07;;;;;;;150.55;52.42;;;0.50;99.90;;;;;;4994409;28;20077;-81
2021/03/02 02:23:44;;;;;;;164.20;51.67;;;0.50;99.90;;;;;;4995578;28;20484;-81
2021/03/02 02:26:49;;;;;;;152.13;58.55;;;0.50;99.90;;;;;;4995753;28;20026;-81
2021/03/02 02:29:26;;;;;;;158.93;55.13;;;0.60;99.90;;;;;;4933875;29;20552;-81
2021/03/02 02:31:52;;;;;;;194.60;57.42;;;0.60;99.90;;;;;;4914913;29;20047;-81
2021/03/02 02:34:19;;;;;;;178.77;54.75;;;0.60;99.90;;;;;;4951224;28;20042;-80
2021/03/02 02:36:50;;;;;;;188.95;60.35;;;0.60;99.90;;;;;;4993805;28;20023;-81
2021/03/02 02:39:17;;;;;;;194.68;59.13;;;0.60;99.90;;;;;;4976845;28;20072;-81
2021/03/02 02:41:48;;;;;;;182.88;58.63;;;0.60;99.90;;;;;;4977021;28;20114;-81
2021/03/02 02:44:17;;;;;;;182.27;60.10;;;0.60;99.90;;;;;;4995279;28;20049;-81
2021/03/02 02:46:43;;;;;;;201.10;60.50;;;0.60;99.90;;;;;;4992225;28;20495;-81
2021/03/02 02:49:11;;;;;;;203.77;69.78;;;0.60;99.90;;;;;;4995157;28;20050;-81
2021/03/02 02:51:38;;;;;;;236.50;69.13;;;0.60;99.90;;;;;;4976499;28;20022;-80
2021/03/02 02:54:06;;;;;;;201.60;65.57;;;0.60;99.90;;;;;;4994649;28;20046;-81
2021/03/02 02:56:35;;;;;;;216.60;68.25;;;0.60;99.90;;;;;;4995026;28;20090;-81
2021/03/02 02:59:09;;;;;;;203.23;72.03;;;0.60;99.90;;;;;;4994847;28;20038;-82
2021/03/02 03:01:42;;;;;;;243.55;72.25;;;0.60;99.90;;;;;;4994777;28;20105;-81
2021/03/02 03:04:10;;;;;;;;;;;0.60;99.90;;;;;;4977706;28;20431;-80
2021/03/02 03:06:39;;;;;;;253.98;70.43;;;0.60;99.90;;;;;;4994840;28;19905;-80
2021/03/02 03:09:06;;;;;;;197.70;57.20;;;0.70;99.90;;;;;;4977589;28;20041;-81
2021/03/02 03:11:40;;;;;;;221.40;64.65;;;0.60;99.90;;;;;;4994446;28;20030;-80
2021/03/02 03:14:09;;;;;;;242.15;70.88;;;0.60;99.90;;;;;;4977237;28;20030;-81
2021/03/02 03:16:37;;;;;;;260.05;67.10;;;0.50;99.90;;;;;;4977110;28;20061;-81
2021/03/02 03:19:04;;;;;;;247.18;68.90;;;0.50;99.90;;;;;;4977007;28;20072;-81
2021/03/02 03:21:32;;;;;;;226.38;65.35;;;0.50;99.90;;;;;;4993403;28;20023;-80
2021/03/02 03:23:59;;;;;;;305.80;76.13;;;0.40;99.90;;;;;;4994412;28;20038;-81
2021/03/02 03:26:32;;;;;;;275.10;70.75;;;0.40;99.90;;;;;;4993965;28;20114;-80
2021/03/02 03:28:59;;;;;;;338.13;79.32;;;0.40;99.90;;;;;;4994451;28;20034;-81
2021/03/02 03:31:25;;;;;;;356.98;78.32;;;0.40;99.90;;;;;;4994192;28;20031;-82
2021/03/02 03:33:52;;;;;;;363.20;77.90;;;0.40;99.90;;;;;;4993947;28;20034;-81
2021/03/02 03:36:19;;;;;;;252.68;68.72;;;0.40;99.90;;;;;;4976737;28;20053;-81
2021/03/02 03:38:45;;;;;;;368.88;80.18;;;0.40;99.90;;;;;;4991535;28;20081;-80
2021/03/02 03:41:14;;;;;;;307.10;69.47;;;0.30;99.90;;;;;;4994133;28;20471;-80
2021/03/02 03:43:40;;;;;;;339.38;71.47;;;0.30;99.90;;;;;;4976196;28;20034;-80
2021/03/02 03:46:06;;;;;;;353.13;69.15;;;0.30;99.90;;;;;;4994148;28;20022;-80
2021/03/02 03:48:32;;;;;;;252.30;60.38;;;0.30;99.90;;;;;;4993409;28;20088;-81
2021/03/02 03:50:58;;;;;;;349.15;75.20;;;0.30;99.90;;;;;;4993897;28;20511;-79
2021/03/02 03:53:28;;;;;;;281.83;64.93;;;0.20;99.90;;;;;;4993921;28;20053;-79
2021/03/02 03:55:55;;;;;;;460.73;91.50;;;0.20;99.90;;;;;;4994002;28;20026;-81
2021/03/02 03:58:28;;;;;;;312.33;70.80;;;0.20;99.90;;;;;;4976403;28;20033;-81
2021/03/02 04:00:54;;;;;;;341.08;71.97;;;0.20;99.90;;;;;;4993641;28;20037;-81
2021/03/02 04:03:22;;;;;;;341.88;66.55;;;0.20;99.90;;;;;;4993483;28;20034;-81
2021/03/02 04:05:49;;;;;;;414.63;80.05;;;0.10;99.90;;;;;;4993086;28;20023;-82
2021/03/02 04:08:16;;;;;;;403.95;84.50;;;0.10;99.90;;;;;;4993467;28;20031;-80
2021/03/02 04:10:42;;;;;;;386.33;79.72;;;0.10;99.90;;;;;;4993638;28;20031;-81
2021/03/02 04:13:10;;;;;;;408.58;79.00;;;0.10;99.90;;;;;;4993832;28;20022;-80
2021/03/02 04:15:37;;;;;;;442.58;84.35;;;0.10;99.90;;;;;;4993594;28;20018;-81
2021/03/02 04:18:08;;;;;;;411.55;91.55;;;0.10;99.90;;;;;;4976010;28;20101;-81
2021/03/02 04:20:34;;;;;;;446.67;110.55;;;0.10;99.90;;;;;;4984413;28;20543;-81
2021/03/02 04:23:00;;;;;;;555.20;154.93;;;0.00;99.90;;;;;;4993649;28;20106;-81
2021/03/02 04:25:25;;;;;;;727.33;263.77;;;0.10;99.90;;;;;;4993634;28;20023;-80
2021/03/02 04:27:51;;;;;;;1065.55;386.63;;;0.10;99.90;;;;;;4992931;28;20031;-80
2021/03/02 04:30:17;;;;;;;593.03;174.60;;;0.10;99.90;;;;;;4991740;28;20089;-81
2021/03/02 04:32:43;;;;;;;401.33;90.85;;;0.10;99.90;;;;;;4993208;28;20027;-80
2021/03/02 04:35:10;;;;;;;398.88;84.40;;;0.10;99.90;;;;;;4993446;28;20053;-81
2021/03/02 04:37:37;;;;;;;434.27;95.00;;;0.10;99.90;;;;;;4976028;28;20058;-80
2021/03/02 04:40:04;;;;;;;432.17;90.78;;;0.10;99.90;;;;;;4996219;28;20111;-81
2021/03/02 04:42:30;;;;;;;505.83;131.40;;;0.10;99.90;;;;;;4996187;28;20023;-81
2021/03/02 04:44:56;;;;;;;382.33;87.43;;;0.10;99.90;;;;;;4997173;28;20027;-81
2021/03/02 04:47:22;;;;;;;431.65;90.43;;;0.10;99.90;;;;;;4997206;28;20026;-80
2021/03/02 04:49:47;;;;;;;460.38;102.60;;;0.10;99.90;;;;;;4997276;28;20097;-80
2021/03/02 04:52:13;;;;;;;415.05;98.13;;;0.10;99.90;;;;;;4997122;28;20033;-80
2021/03/02 04:54:38;;;;;;;368.63;85.72;;;0.20;99.90;;;;;;4997190;28;20031;-81
2021/03/02 04:57:04;;;;;;;457.05;114.22;;;0.10;99.90;;;;;;4979868;28;20042;-81
2021/03/02 04:59:30;;;;;;;404.40;102.25;;;0.20;99.90;;;;;;4979525;28;20129;-81
2021/03/02 05:01:55;;;;;;;294.63;69.38;;;0.20;99.90;;;;;;4996710;28;20058;-80
2021/03/02 05:04:21;;;;;;;459.23;102.32;;;0.20;99.90;;;;;;4996445;28;20493;-81
2021/03/02 05:06:47;;;;;;;448.40;119.25;;;0.10;99.90;;;;;;4997101;28;20022;-80
2021/03/02 05:09:12;;;;;;;357.58;84.13;;;0.20;99.90;;;;;;5009977;28;20467;-81
2021/03/02 05:11:38;;;;;;;386.85;94.38;;;0.10;99.90;;;;;;5016456;28;20033;-80
2021/03/02 05:14:04;;;;;;;383.88;87.07;;;0.10;99.90;;;;;;5016452;28;20037;-82
2021/03/02 05:16:29;;;;;;;520.33;123.97;;;0.10;99.90;;;;;;4988467;28;20015;-80
2021/03/02 05:18:55;;;;;;;431.27;94.05;;;0.00;99.90;;;;;;4995877;28;20034;-81
2021/03/02 05:21:21;;;;;;;454.50;97.63;;;0.10;99.90;;;;;;4995926;28;20026;-81
2021/03/02 05:23:46;;;;;;;322.80;72.47;;;0.10;99.90;;;;;;4979136;28;20030;-81
2021/03/02 05:26:12;;;;;;;415.55;93.82;;;0.00;99.90;;;;;;4996654;28;20476;-81
2021/03/02 05:28:38;;;;;;;300.98;71.97;;;0.00;99.90;;;;;;4996506;28;20038;-81
2021/03/02 05:31:03;;;;;;;328.10;83.53;;;-0.10;99.90;;;;;;4995524;28;20022;-80
2021/03/02 05:33:29;;;;;;;342.40;80.05;;;0.00;99.90;;;;;;4996114;28;20050;-81
2021/03/02 05:35:55;;;;;;;329.80;76.78;;;0.00;99.90;;;;;;4978928;28;20125;-81
2021/03/02 05:38:20;;;;;;;386.40;110.00;;;0.00;99.90;;;;;;4978874;28;20018;-80
2021/03/02 05:40:46;;;;;;;264.38;74.30;;;0.00;99.90;;;;;;4996407;28;20026;-80
2021/03/02 05:43:12;;;;;;;398.85;88.22;;;0.00;99.90;;;;;;4996473;28;20133;-80
2021/03/02 05:45:37;;;;;;;314.85;69.97;;;0.10;99.90;;;;;;4996069;28;20023;-81
2021/03/02 05:48:09;;;;;;;312.38;74.38;;;0.00;99.90;;;;;;4991539;28;20023;-82
2021/03/02 05:50:35;;;;;;;335.05;75.95;;;-0.10;99.90;;;;;;4991255;28;20046;-81
2021/03/02 05:53:02;;;;;;;292.30;66.28;;;-0.10;99.90;;;;;;4994623;28;20049;-81
2021/03/02 05:55:29;;;;;;;318.85;70.43;;;-0.10;99.90;;;;;;4996030;28;20014;-81
2021/03/02 05:57:56;;;;;;;313.63;78.22;;;-0.10;99.90;;;;;;4995989;28;20475;-81
2021/03/02 06:00:22;;;;;;;308.88;72.88;;;-0.10;99.90;;;;;;4995929;28;20038;-81
2021/03/02 06:02:48;;;;;;;337.23;79.60;;;-0.10;99.90;;;;;;4994653;28;20427;-80
2021/03/02 06:05:14;;;;;;;378.15;77.65;;;-0.10;99.90;;;;;;4996013;28;20014;-81
2021/03/02 06:07:40;;;;;;;405.85;92.25;;;-0.10;99.90;;;;;;4978398;28;20403;-81
2021/03/02 06:10:06;;;;;;;385.45;90.30;;;-0.10;99.90;;;;;;5014365;28;20106;-81
2021/03/02 06:12:49;;;;;;;302.50;70.55;;;0.00;99.90;;;;;;4994297;28;20476;-81
2021/03/02 06:15:18;;;;;;;398.25;83.20;;;0.00;99.90;;;;;;4995379;28;20365;-81
2021/03/02 06:17:44;;;;;;;262.70;69.90;;;0.00;99.90;;;;;;4989072;28;20030;-81
2021/03/02 06:20:30;;;;;;;355.25;80.93;;;0.00;99.90;;;;;;4995293;28;20041;-81
2021/03/02 06:22:55;;;;;;;353.17;80.28;;;0.00;99.90;;;;;;4974494;28;20049;-81
2021/03/02 06:25:33;;;;;;;335.83;72.18;;;0.00;99.90;;;;;;4994542;28;20034;-81
2021/03/02 06:27:59;;;;;;;336.50;67.93;;;0.00;99.90;;;;;;5000692;28;20030;-81
2021/03/02 06:30:25;;;;;;;344.50;73.05;;;0.00;99.90;;;;;;4994854;28;20034;-81
2021/03/02 06:32:53;;;;;;;389.95;87.97;;;0.00;99.90;;;;;;4995229;28;20030;-80
2021/03/02 06:35:29;;;;;;;393.77;84.95;;;0.10;99.90;;;;;;4993970;28;20049;-81
2021/03/02 06:37:55;;;;;;;434.15;86.50;;;0.10;99.90;;;;;;4977712;28;20049;-81
2021/03/02 06:40:48;;;;;;;385.33;81.63;;;0.10;99.90;;;;;;4991560;28;20096;-82
2021/03/02 06:43:32;;;;;;;335.38;73.95;;;0.10;99.90;;;;;;4999317;28;20026;-82
2021/03/02 06:45:59;;;;;;;323.85;75.30;;;0.10;99.90;;;;;;4992805;28;20049;-81
2021/03/02 06:48:24;;;;;;;296.83;74.75;;;0.20;99.90;;;;;;4994482;28;20033;-80
2021/03/02 06:50:50;;;;;;;275.98;63.25;;;0.20;99.90;;;;;;4994946;28;20396;-81
2021/03/02 06:53:17;;;;;;;310.48;64.00;;;0.30;99.90;;;;;;4990950;28;20469;-81
2021/03/02 06:55:43;;;;;;;268.45;67.85;;;0.30;99.90;;;;;;4990400;28;20034;-81
2021/03/02 06:58:22;;;;;;;236.70;67.28;;;0.40;99.90;;;;;;5000454;28;20026;-81
2021/03/02 07:00:56;;;;;;;235.15;63.47;;;0.50;99.90;;;;;;4989554;28;20395;-82
2021/03/02 07:03:30;;;;;;;298.58;67.45;;;0.40;99.90;;;;;;5000222;28;20538;-81
2021/03/02 07:06:07;;;;;;;312.17;68.00;;;0.40;99.90;;;;;;5003151;28;20018;-82
2021/03/02 07:08:34;;;;;;;264.35;70.30;;;0.40;99.90;;;;;;5002981;28;20018;-82
2021/03/02 07:11:01;;;;;;;308.90;77.35;;;0.40;99.90;;;;;;4990356;28;20018;-81
2021/03/02 07:13:31;;;;;;;335.58;77.18;;;0.50;99.90;;;;;;5001948;28;20033;-82
2021/03/02 07:15:58;;;;;;;294.45;70.50;;;0.50;99.90;;;;;;5005012;28;20030;-82
2021/03/02 07:18:28;;;;;;;323.88;73.45;;;0.60;99.90;;;;;;4994561;28;20022;-81
2021/03/02 07:21:00;;;;;;;304.25;75.97;;;0.60;99.90;;;;;;4976649;28;20053;-81
2021/03/02 07:23:27;;;;;;;305.70;67.67;;;0.60;99.90;;;;;;4985628;28;20014;-82
2021/03/02 07:25:55;;;;;;;381.83;95.80;;;0.60;99.90;;;;;;4992486;28;20025;-81
2021/03/02 07:28:24;;;;;;;262.35;75.07;;;0.60;99.90;;;;;;4974726;28;20025;-82
2021/03/02 07:30:52;;;;;;;278.25;68.97;;;0.60;99.90;;;;;;4973274;28;20057;-81
2021/03/02 07:33:18;;;;;;;330.30;84.40;;;0.60;99.90;;;;;;4992173;28;20168;-81
2021/03/02 07:35:45;;;;;;;275.38;70.63;;;0.70;99.90;;;;;;4991138;28;20488;-81
2021/03/02 07:38:12;;;;;;;428.63;113.53;;;0.70;99.90;;;;;;4990792;28;20026;-81
2021/03/02 07:40:48;;;;;;;255.35;69.38;;;0.80;99.90;;;;;;4993697;28;20120;-81
2021/03/02 07:43:37;;;;;;;296.58;71.72;;;0.90;99.90;;;;;;4973363;28;20031;-81
2021/03/02 07:46:37;;;;;;;276.88;71.05;;;0.80;99.90;;;;;;4964428;28;20066;-82
2021/03/02 07:49:24;;;;;;;249.02;63.88;;;0.80;99.90;;;;;;4974715;28;20109;-81
2021/03/02 07:52:03;;;;;;;349.10;92.68;;;0.80;99.90;;;;;;4986101;28;20441;-81
2021/03/02 07:54:33;;;;;;;279.38;75.22;;;0.80;99.90;;;;;;4976546;28;20093;-81
2021/03/02 07:57:26;;;;;;;266.27;69.88;;;0.80;99.90;;;;;;4976561;28;20391;-81
2021/03/02 08:00:13;;;;;;;251.27;67.68;;;0.90;99.90;;;;;;4988941;28;20046;-81
2021/03/02 08:02:39;;;;;;;268.75;70.93;;;1.00;99.90;;;;;;4976101;28;20041;-81
2021/03/02 08:05:27;;;;;;;320.90;102.72;;;1.10;99.90;;;;;;4993844;28;20022;-80
2021/03/02 08:08:23;;;;;;;288.90;82.20;;;1.10;99.90;;;;;;4993807;28;20468;-81
2021/03/02 08:10:59;;;;;;;251.55;72.30;;;1.30;99.90;;;;;;4993424;28;20416;-81
2021/03/02 08:13:37;;;;;;;243.43;72.00;;;1.30;99.90;;;;;;4975307;28;20034;-81
2021/03/02 08:16:05;;;;;;;230.73;68.80;;;1.40;99.90;;;;;;4993868;28;20023;-81
2021/03/02 08:18:36;;;;;;;238.48;78.70;;;1.40;99.90;;;;;;4992486;28;20105;-81
2021/03/02 08:21:21;;;;;;;329.75;112.88;;;1.50;99.90;;;;;;4993600;28;20034;-81
2021/03/02 08:23:47;;;;;;;226.48;71.45;;;1.60;99.90;;;;;;4993541;28;20080;-81
2021/03/02 08:26:23;;;;;;;210.43;68.47;;;1.60;99.90;;;;;;4993490;28;20076;-80
2021/03/02 08:29:24;;;;;;;215.13;65.35;;;1.70;99.90;;;;;;4993454;28;20081;-81
2021/03/02 08:31:50;;;;;;;216.05;66.15;;;1.80;99.90;;;;;;4933581;29;20024;-79
2021/03/02 08:34:18;;;;;;;238.27;70.43;;;1.90;99.90;;;;;;4981138;28;20049;-79
2021/03/02 08:36:48;;;;;;;263.08;85.97;;;2.00;99.90;;;;;;4993511;28;20030;-78
2021/03/02 08:39:17;;;;;;;207.77;65.50;;;2.00;99.90;;;;;;4992903;28;20041;-79
2021/03/02 08:41:46;;;;;;;181.20;60.78;;;2.10;99.90;;;;;;4992325;28;20028;-79
2021/03/02 08:44:23;;;;;;;198.52;67.00;;;2.20;99.90;;;;;;4975190;28;20134;-79
2021/03/02 08:46:58;;;;;;;214.75;67.00;;;2.30;99.90;;;;;;4975470;28;20388;-79
2021/03/02 08:49:25;;;;;;;191.88;75.90;;;2.40;99.90;;;;;;4975847;28;20033;-79
2021/03/02 08:52:01;;;;;;;206.18;69.57;;;2.50;99.90;;;;;;4992977;28;20023;-78
2021/03/02 08:54:28;;;;;;;165.55;60.05;;;2.60;99.90;;;;;;4993240;28;20030;-79
2021/03/02 08:57:04;;;;;;;150.25;54.25;;;2.80;99.90;;;;;;4975894;28;20031;-79
2021/03/02 08:59:31;;;;;;;180.77;69.07;;;2.90;99.90;;;;;;4975347;28;20113;-79
2021/03/02 09:01:57;;;;;;;158.40;53.63;;;3.10;99.90;;;;;;4993160;28;20027;-79
2021/03/02 09:04:25;;;;;;;142.40;49.95;;;3.20;99.90;;;;;;4975684;28;20045;-79
2021/03/02 09:06:52;;;;;;;156.40;54.08;;;3.30;99.90;;;;;;4975794;28;20022;-79
2021/03/02 09:09:20;;;;;;;161.68;60.83;;;3.50;99.90;;;;;;4975751;28;20058;-79
2021/03/02 09:11:49;;;;;;;138.88;50.28;;;3.50;99.90;;;;;;4992464;28;20027;-78
2021/03/02 09:14:34;;;;;;;149.32;53.75;;;3.60;99.90;;;;;;4992997;28;20034;-79
2021/03/02 09:17:02;;;;;;;139.77;49.05;;;3.70;99.90;;;;;;4975269;28;20027;-79
2021/03/02 09:19:29;;;;;;;140.65;48.72;;;3.70;99.90;;;;;;4993004;28;20034;-79
2021/03/02 09:22:14;;;;;;;138.25;51.45;;;3.90;99.90;;;;;;4992794;28;20037;-79
2021/03/02 09:24:45;;;;;;;156.93;60.90;;;4.10;99.90;;;;;;4993387;28;20033;-79
2021/03/02 09:27:14;;;;;;;142.55;53.35;;;4.30;99.90;;;;;;4996885;28;20015;-79
2021/03/02 09:29:46;;;;;;;124.38;46.05;;;4.50;99.90;;;;;;4995379;28;20049;-79
2021/03/02 09:32:15;;;;;;;110.93;44.70;;;4.60;99.90;;;;;;4996505;28;20415;-79
2021/03/02 09:34:45;;;;;;;119.22;45.30;;;4.80;99.90;;;;;;4979091;28;20088;-79
2021/03/02 09:37:13;;;;;;;114.93;45.20;;;5.00;99.90;;;;;;4995328;28;20022;-79
2021/03/02 09:39:41;;;;;;;116.20;46.20;;;5.10;99.90;;;;;;4996175;28;20076;-79
2021/03/02 09:42:18;;;;;;;88.97;36.45;;;5.30;99.90;;;;;;4996063;28;20060;-79
2021/03/02 09:44:53;;;;;;;110.00;41.88;;;5.40;99.90;;;;;;4995735;28;20026;-80
2021/03/02 09:47:33;;;;;;;91.22;37.33;;;5.60;99.90;;;;;;4978608;28;20018;-79
2021/03/02 09:50:12;;;;;;;92.43;37.00;;;5.70;97.50;;;;;;4978549;28;20433;-79
2021/03/02 09:52:43;;;;;;;100.13;37.80;;;5.80;95.80;;;;;;4978754;28;20388;-79
2021/03/02 09:55:18;;;;;;;85.70;36.20;;;6.00;95.20;;;;;;4996283;28;20033;-79
2021/03/02 09:57:59;;;;;;;76.72;34.58;;;6.10;92.90;;;;;;4996091;28;20026;-79
2021/03/02 10:00:29;;;;;;;99.93;44.03;;;6.30;91.00;;;;;;4994605;28;20038;-80
2021/03/02 10:03:00;;;;;;;98.80;39.95;;;6.60;92.50;;;;;;4976682;28;20531;-80
2021/03/02 10:05:31;;;;;;;68.90;30.15;;;6.70;89.60;;;;;;4976508;28;20066;-79
2021/03/02 10:07:57;;;;;;;66.18;25.58;;;6.90;82.60;;;;;;4976557;28;20039;-79
2021/03/02 10:10:53;;;;;;;74.88;29.85;;;7.10;78.70;;;;;;4958978;28;20113;-80
2021/03/02 10:13:24;;;;;;;59.72;25.90;;;7.30;77.90;;;;;;4943733;28;20039;-79
2021/03/02 10:15:49;;;;;;;48.00;20.73;;;7.40;74.00;;;;;;4977194;28;20031;-79
2021/03/02 10:18:23;;;;;;;49.85;20.95;;;7.50;71.80;;;;;;4995903;28;20165;-78
2021/03/02 10:21:05;;;;;;;46.92;19.55;;;7.60;71.20;;;;;;4995419;28;20034;-79
2021/03/02 10:23:31;;;;;;;40.38;17.25;;;7.80;69.90;;;;;;4995714;28;20038;-80
2021/03/02 10:25:58;;;;;;;45.53;18.20;;;7.80;67.10;;;;;;4994436;28;20037;-79
2021/03/02 10:28:34;;;;;;;35.63;15.55;;;7.90;67.70;;;;;;4977427;28;20030;-79
2021/03/02 10:31:00;;;;;;;39.58;17.67;;;8.00;66.00;;;;;;4995820;28;20022;-79
2021/03/02 10:33:26;;;;;;;40.80;17.10;;;8.10;66.60;;;;;;4995441;28;20026;-79
2021/03/02 10:35:53;;;;;;;39.65;18.67;;;8.20;65.70;;;;;;4995960;28;20483;-79
2021/03/02 10:38:19;;;;;;;35.33;16.33;;;8.40;66.10;;;;;;4994900;28;20015;-79
2021/03/02 10:40:45;;;;;;;35.85;17.02;;;8.40;64.70;;;;;;4995113;28;20396;-79
2021/03/02 10:43:10;;;;;;;56.33;26.88;;;8.50;64.30;;;;;;4995354;28;20026;-78
2021/03/02 10:45:36;;;;;;;34.60;18.02;;;8.60;65.70;;;;;;4995233;28;20100;-79
2021/03/02 10:48:03;;;;;;;37.58;16.92;;;8.80;64.50;;;;;;4994975;28;20023;-78
2021/03/02 10:50:30;;;;;;;40.58;15.90;;;8.80;63.00;;;;;;4977413;28;20029;-79
2021/03/02 10:52:56;;;;;;;31.20;14.57;;;8.90;63.20;;;;;;4995188;28;20476;-79
2021/03/02 10:55:23;;;;;;;35.58;14.27;;;8.90;61.80;;;;;;4977811;28;20452;-80
2021/03/02 10:57:50;;;;;;;34.10;16.73;;;9.00;61.80;;;;;;4994422;28;20030;-79
2021/03/02 11:00:17;;;;;;;29.67;13.55;;;9.20;62.50;;;;;;4977348;28;20045;-79
2021/03/02 11:02:43;;;;;;;32.63;14.82;;;9.30;60.60;;;;;;4994956;28;20089;-79
2021/03/02 11:05:10;;;;;;;31.95;13.20;;;9.40;61.00;;;;;;4994599;28;20030;-80
2021/03/02 11:07:35;;;;;;;21.83;11.50;;;9.60;59.50;;;;;;4993580;28;20022;-79
2021/03/02 11:10:01;;;;;;;24.48;11.73;;;9.70;58.10;;;;;;4977408;28;20049;-80
2021/03/02 11:12:26;;;;;;;21.50;10.88;;;9.80;57.80;;;;;;4994764;28;20037;-79
2021/03/02 11:14:52;;;;;;;22.63;10.82;;;9.90;57.00;;;;;;4994686;28;20361;-79
2021/03/02 11:17:18;;;;;;;25.48;11.85;;;9.80;55.70;;;;;;4994485;28;20023;-79
2021/03/02 11:19:43;;;;;;;25.95;11.55;;;9.80;55.60;;;;;;4993881;28;20073;-80
2021/03/02 11:22:09;;;;;;;20.67;9.90;;;9.80;55.70;;;;;;4994303;28;20057;-79
2021/03/02 11:24:35;;;;;;;27.13;11.85;;;9.80;56.10;;;;;;4977074;28;20029;-79
2021/03/02 11:27:00;;;;;;;24.25;11.90;;;9.80;55.80;;;;;;4993837;28;20388;-78
2021/03/02 11:29:26;;;;;;;30.83;13.10;;;10.00;57.50;;;;;;4994163;28;20177;-79
2021/03/02 11:31:51;;;;;;;29.50;14.30;;;10.00;55.50;;;;;;4994160;28;20502;-79
2021/03/02 11:34:17;;;;;;;26.00;12.05;;;10.00;56.20;;;;;;4993777;28;20506;-80
2021/03/02 11:36:43;;;;;;;27.45;12.93;;;10.10;56.10;;;;;;4994213;28;20410;-78
2021/03/02 11:39:09;;;;;;;27.20;11.95;;;10.20;56.30;;;;;;4976654;28;20039;-79
2021/03/02 11:41:35;;;;;;;28.48;12.30;;;10.20;55.00;;;;;;4994315;28;20101;-78
2021/03/02 11:44:00;;;;;;;25.38;10.88;;;10.30;56.30;;;;;;4976430;28;20027;-79
2021/03/02 11:46:26;;;;;;;31.15;13.65;;;10.40;54.50;;;;;;4992748;28;20026;-79
2021/03/02 11:48:52;;;;;;;30.52;13.27;;;10.50;54.30;;;;;;4992737;28;20437;-79
2021/03/02 11:51:17;;;;;;;28.10;12.82;;;10.50;54.90;;;;;;4976510;28;20022;-79
2021/03/02 11:53:43;;;;;;;33.28;14.07;;;10.50;54.40;;;;;;4992457;28;20060;-80
2021/03/02 11:56:08;;;;;;;26.42;13.32;;;10.60;54.40;;;;;;5004390;28;20056;-78
2021/03/02 11:58:34;;;;;;;29.90;14.68;;;10.50;53.90;;;;;;4993345;28;20026;-80
2021/03/02 12:01:00;;;;;;;26.65;12.75;;;10.40;54.50;;;;;;4975967;28;20038;-79
2021/03/02 12:03:25;;;;;;;27.67;13.40;;;10.50;55.50;;;;;;4993626;28;20037;-79
2021/03/02 12:05:52;;;;;;;34.97;14.57;;;10.50;54.80;;;;;;4992663;28;20019;-79
2021/03/02 12:08:18;;;;;;;33.92;16.15;;;10.50;55.30;;;;;;4993912;28;20438;-79
2021/03/02 12:10:43;;;;;;;31.80;14.23;;;10.60;56.30;;;;;;4993715;28;20022;-79
2021/03/02 12:13:10;;;;;;;26.40;12.75;;;10.70;55.70;;;;;;4992532;28;20019;-78
2021/03/02 12:15:35;;;;;;;32.03;14.05;;;10.80;55.80;;;;;;4976110;28;20031;-79
2021/03/02 12:18:01;;;;;;;24.30;11.80;;;10.90;55.30;;;;;;4992206;28;20022;-79
2021/03/02 12:20:27;;;;;;;26.92;11.85;;;10.80;54.10;;;;;;4993517;28;20100;-80
2021/03/02 12:22:52;;;;;;;26.67;12.73;;;10.90;55.00;;;;;;4993537;28;20105;-79
2021/03/02 12:25:18;;;;;;;28.75;12.63;;;11.00;55.50;;;;;;4976170;28;20023;-79
2021/03/02 12:27:44;;;;;;;23.58;11.10;;;11.10;55.00;;;;;;4975760;28;20018;-78
2021/03/02 12:30:10;;;;;;;22.27;10.27;;;11.20;54.40;;;;;;4993543;28;20057;-79
2021/03/02 12:32:36;;;;;;;22.65;9.75;;;11.30;53.50;;;;;;4975961;28;20018;-79
2021/03/02 12:35:04;;;;;;;20.73;9.23;;;11.20;51.50;;;;;;4992946;28;20073;-79
2021/03/02 12:37:29;;;;;;;22.27;9.57;;;11.20;52.00;;;;;;4992786;28;20069;-79
2021/03/02 12:39:55;;;;;;;18.92;8.85;;;11.20;51.40;;;;;;4993129;28;20439;-80